Language selection

My Weather Profile Weather Topics  | 

East Foxe: Past 24 Hour Conditions

 

Fort Severn Airport

03:00 AM EST 25 January 2022
Disclaimer

This table is a summary of hourly weather conditions for the past 24 hours.
Please note that these observations might not always be representative of weather conditions over their associated marine area.

Date / Time
(EST)
Wind(knots) Conditions Visibility(km) Pressure(kPa) Air tempC) Relative humidity(%) Dew pointC) Wind Chill
25 January 2022
3:00 WNW 9 N/A 16 101.4 -28 75 -31 -40
2:00 WNW 12 gust 18 N/A 16 101.3 -28 74 -31 -41
1:00 WNW 12 gust 17 N/A 16 101.2 -28 73 -32 -42
0:00 WNW 12 gust 18 N/A 15 101.2 -28 73 -32 -42
24 January 2022
23:00 WNW 11 gust 17 N/A 16 101.1 -29 71 -32 -42
22:00 WNW 11 gust 19 N/A 16 101.1 -29 70 -32 -41
21:00 WNW 12 gust 17 N/A 16 101.1 -28 69 -32 -42
20:00 W 13 gust 21 N/A 16 101.0 -28 68 -32 -42
19:00 W 13 gust 20 Haze 10 101.0 -28 68 -32 -41
18:00 W 14 gust 21 N/A 16 100.9 -27 67 -31 -41
17:00 W 14 gust 23 N/A 16 100.9 -26 65 -31 -40
16:00 W 11 gust 21 N/A 16 100.8 -25 65 -30 -37
15:00 W 12 gust 21 N/A 16 100.7 -25 64 -30 -38
14:00 WNW 13 gust 19 N/A 16 100.7 -25 63 -30 -37
13:00 WNW 15 gust 21 N/A 16 100.6 -25 65 -30 -39
12:00 WNW 11 gust 21 N/A 16 100.6 -26 67 -30 -38
11:00 WNW 10 gust 18 N/A 16 100.6 -27 71 -31 -39
10:00 WNW 11 gust 17 N/A 16 100.6 -29 73 -32 -42
9:00 W 9 N/A 16 100.5 -30 74 -33 -42
8:00 WNW 8 N/A 16 100.5 -29 75 -32 -41
7:00 WNW 9 gust 15 N/A 16 100.5 -29 75 -32 -41
6:00 W 9 N/A 16 100.5 -29 75 -32 -41
5:00 W 9 N/A 16 100.4 -30 74 -33 -42
4:00 W 7 N/A 16 100.4 -30 74 -33 -40
3:00 W 9 N/A 16 100.4 -30 74 -33 -42

Zoom-in to make a selection

Map of Hudson - Hudson Bay marine weather areas Arviat Airport Baker Lake Airport Chesterfield Inlet Airport Coral Harbour Airport Rankin Inlet Airport Sanikiluaq Airport Whale Cove Airport Kinngait (Cape Dorset Airport) Iqaluit Airport Wager Bay Kimmirut Airport Churchill Airport Fort Severn Airport Peawanuck Airport Moosonee Airport Eastmain Airport La Grande Rivière Airport Waskaganish Airport Wemindji Airport Akulivik Airport Inukjuak Airport Ivujivik Airport Kuujjuarapik Airport Puvirnituq Airport Umiujaq Airport Aupaluk Airport Kangiqsujuaq Airport Kangirsuk Airport Kangiqsualujjuaq Airport Kuujjuaq Airport Quaqtaq Airport Salluit Airport Tasiujaq Airport Cape Kakkiviak
Legend:
buoy Buoy
land station Land Station

Hudson - Hudson Bay Area

Another Region

What we are doing

Features

Hello Weather

Hello Weather: our upgraded telephone weather service is here. 1-833-794-3556 or 1-833-79HELLO.

Date modified: